Terminal Aerodrome Forecast
Issued by NWS Sterling, VA

Current Version | Previous Version | Text Only | Print | Product List | Glossary Off
Versions: 1 2 3 4 5 6 7 8 9 10 11 12 13 14 15 16 17 18 19 20 21 22

000
FTUS41 KLWX 161500 AAA
TAFDCA
TAF AMD
KDCA 161505Z 1615/1712 32008G16KT P6SM SCT050
     FM162100 36008KT P6SM FEW050
     FM170300 02005KT P6SM FEW050=

USA.gov is the U.S. government's official web portal to all federal, state and local government web resources and services.